sensor_id;sensor_type;location;lat;lon;timestamp;P1;durP1;ratioP1;P2;durP2;ratioP2
31906;SDS011;18455;50.858;13.662;2023-03-26T00:03:26;7.30;;;1.47;;
31906;SDS011;18455;50.858;13.662;2023-03-26T00:08:26;6.43;;;1.80;;
31906;SDS011;18455;50.858;13.662;2023-03-26T00:13:27;3.57;;;1.33;;
31906;SDS011;18455;50.858;13.662;2023-03-26T00:18:27;7.10;;;2.00;;
31906;SDS011;18455;50.858;13.662;2023-03-26T00:23:34;4.80;;;1.50;;
31906;SDS011;18455;50.858;13.662;2023-03-26T00:28:34;6.70;;;1.77;;
31906;SDS011;18455;50.858;13.662;2023-03-26T00:33:39;2.87;;;1.50;;
31906;SDS011;18455;50.858;13.662;2023-03-26T00:38:40;1.83;;;1.33;;
31906;SDS011;18455;50.858;13.662;2023-03-26T00:43:44;5.80;;;2.20;;
31906;SDS011;18455;50.858;13.662;2023-03-26T00:48:45;6.63;;;1.67;;
31906;SDS011;18455;50.858;13.662;2023-03-26T00:53:47;5.10;;;1.57;;
31906;SDS011;18455;50.858;13.662;2023-03-26T00:58:48;6.30;;;1.50;;
31906;SDS011;18455;50.858;13.662;2023-03-26T01:03:49;4.83;;;1.60;;
31906;SDS011;18455;50.858;13.662;2023-03-26T01:08:58;4.13;;;1.57;;
31906;SDS011;18455;50.858;13.662;2023-03-26T01:14:04;2.90;;;1.60;;
31906;SDS011;18455;50.858;13.662;2023-03-26T01:19:31;3.30;;;1.40;;
31906;SDS011;18455;50.858;13.662;2023-03-26T01:24:37;6.07;;;1.67;;
31906;SDS011;18455;50.858;13.662;2023-03-26T01:29:40;4.63;;;1.37;;
31906;SDS011;18455;50.858;13.662;2023-03-26T01:34:52;3.53;;;1.43;;
31906;SDS011;18455;50.858;13.662;2023-03-26T01:39:59;4.77;;;1.30;;
31906;SDS011;18455;50.858;13.662;2023-03-26T01:45:19;3.37;;;1.23;;
31906;SDS011;18455;50.858;13.662;2023-03-26T01:50:21;4.77;;;1.30;;
31906;SDS011;18455;50.858;13.662;2023-03-26T01:55:24;2.40;;;1.23;;
31906;SDS011;18455;50.858;13.662;2023-03-26T02:00:34;5.30;;;1.50;;
31906;SDS011;18455;50.858;13.662;2023-03-26T02:05:43;2.20;;;1.30;;
31906;SDS011;18455;50.858;13.662;2023-03-26T02:10:51;6.23;;;1.43;;
31906;SDS011;18455;50.858;13.662;2023-03-26T02:15:59;5.37;;;1.80;;
31906;SDS011;18455;50.858;13.662;2023-03-26T02:21:08;2.60;;;1.00;;
31906;SDS011;18455;50.858;13.662;2023-03-26T02:26:14;5.87;;;1.63;;
31906;SDS011;18455;50.858;13.662;2023-03-26T02:31:27;3.97;;;1.60;;
31906;SDS011;18455;50.858;13.662;2023-03-26T02:36:29;2.87;;;1.73;;
31906;SDS011;18455;50.858;13.662;2023-03-26T02:41:33;4.40;;;1.87;;
31906;SDS011;18455;50.858;13.662;2023-03-26T02:46:37;5.50;;;1.40;;
31906;SDS011;18455;50.858;13.662;2023-03-26T02:51:53;1.90;;;1.20;;
31906;SDS011;18455;50.858;13.662;2023-03-26T02:56:59;4.27;;;1.60;;
31906;SDS011;18455;50.858;13.662;2023-03-26T03:02:23;3.57;;;1.50;;
31906;SDS011;18455;50.858;13.662;2023-03-26T03:07:26;2.60;;;1.47;;
31906;SDS011;18455;50.858;13.662;2023-03-26T03:12:28;4.00;;;1.40;;
31906;SDS011;18455;50.858;13.662;2023-03-26T03:17:28;1.27;;;1.10;;
31906;SDS011;18455;50.858;13.662;2023-03-26T03:22:29;3.40;;;1.70;;
31906;SDS011;18455;50.858;13.662;2023-03-26T03:27:29;3.83;;;1.80;;
31906;SDS011;18455;50.858;13.662;2023-03-26T03:32:38;6.30;;;1.80;;
31906;SDS011;18455;50.858;13.662;2023-03-26T03:37:39;13.13;;;2.30;;
31906;SDS011;18455;50.858;13.662;2023-03-26T03:42:41;4.97;;;1.83;;
31906;SDS011;18455;50.858;13.662;2023-03-26T03:47:43;3.10;;;1.50;;
31906;SDS011;18455;50.858;13.662;2023-03-26T03:52:44;5.93;;;1.83;;
31906;SDS011;18455;50.858;13.662;2023-03-26T03:57:45;5.57;;;1.87;;
31906;SDS011;18455;50.858;13.662;2023-03-26T04:02:51;4.40;;;1.90;;
31906;SDS011;18455;50.858;13.662;2023-03-26T04:07:53;8.00;;;2.00;;
31906;SDS011;18455;50.858;13.662;2023-03-26T04:13:00;4.53;;;1.90;;
31906;SDS011;18455;50.858;13.662;2023-03-26T04:18:17;4.80;;;1.83;;
31906;SDS011;18455;50.858;13.662;2023-03-26T04:23:20;6.60;;;2.17;;
31906;SDS011;18455;50.858;13.662;2023-03-26T04:28:26;10.17;;;2.57;;
31906;SDS011;18455;50.858;13.662;2023-03-26T04:33:50;5.23;;;1.73;;
31906;SDS011;18455;50.858;13.662;2023-03-26T04:38:55;3.93;;;1.73;;
31906;SDS011;18455;50.858;13.662;2023-03-26T04:44:13;3.17;;;1.40;;
31906;SDS011;18455;50.858;13.662;2023-03-26T04:49:23;5.17;;;1.60;;
31906;SDS011;18455;50.858;13.662;2023-03-26T04:54:24;5.83;;;1.47;;
31906;SDS011;18455;50.858;13.662;2023-03-26T04:59:33;5.67;;;1.70;;
31906;SDS011;18455;50.858;13.662;2023-03-26T05:04:36;5.47;;;1.87;;
31906;SDS011;18455;50.858;13.662;2023-03-26T05:09:40;8.80;;;1.80;;
31906;SDS011;18455;50.858;13.662;2023-03-26T05:14:48;3.87;;;1.83;;
31906;SDS011;18455;50.858;13.662;2023-03-26T05:19:55;8.37;;;1.73;;
31906;SDS011;18455;50.858;13.662;2023-03-26T05:24:57;9.07;;;1.80;;
31906;SDS011;18455;50.858;13.662;2023-03-26T05:30:01;4.17;;;1.57;;
31906;SDS011;18455;50.858;13.662;2023-03-26T05:35:06;8.00;;;2.00;;
31906;SDS011;18455;50.858;13.662;2023-03-26T05:40:07;13.40;;;1.60;;
31906;SDS011;18455;50.858;13.662;2023-03-26T05:45:39;4.97;;;1.87;;
31906;SDS011;18455;50.858;13.662;2023-03-26T05:50:57;6.93;;;1.60;;
31906;SDS011;18455;50.858;13.662;2023-03-26T05:56:00;7.17;;;3.20;;
31906;SDS011;18455;50.858;13.662;2023-03-26T06:01:39;3.90;;;2.33;;
31906;SDS011;18455;50.858;13.662;2023-03-26T06:07:02;3.53;;;1.90;;
31906;SDS011;18455;50.858;13.662;2023-03-26T06:12:03;7.50;;;1.77;;
31906;SDS011;18455;50.858;13.662;2023-03-26T06:17:05;4.27;;;2.00;;
31906;SDS011;18455;50.858;13.662;2023-03-26T06:22:25;5.60;;;2.30;;
31906;SDS011;18455;50.858;13.662;2023-03-26T06:27:44;7.23;;;2.13;;
31906;SDS011;18455;50.858;13.662;2023-03-26T06:33:03;8.40;;;2.10;;
31906;SDS011;18455;50.858;13.662;2023-03-26T06:38:10;10.37;;;2.17;;
31906;SDS011;18455;50.858;13.662;2023-03-26T06:43:12;4.80;;;2.00;;
31906;SDS011;18455;50.858;13.662;2023-03-26T06:48:31;5.57;;;1.70;;
31906;SDS011;18455;50.858;13.662;2023-03-26T06:53:50;3.13;;;1.90;;
31906;SDS011;18455;50.858;13.662;2023-03-26T06:59:10;6.20;;;2.00;;
31906;SDS011;18455;50.858;13.662;2023-03-26T07:04:29;5.67;;;1.87;;
31906;SDS011;18455;50.858;13.662;2023-03-26T07:09:48;4.07;;;1.50;;
31906;SDS011;18455;50.858;13.662;2023-03-26T07:15:11;3.80;;;1.97;;
31906;SDS011;18455;50.858;13.662;2023-03-26T07:20:32;8.40;;;2.00;;
31906;SDS011;18455;50.858;13.662;2023-03-26T07:25:32;6.00;;;2.17;;
31906;SDS011;18455;50.858;13.662;2023-03-26T07:36:20;5.57;;;1.67;;
31906;SDS011;18455;50.858;13.662;2023-03-26T07:41:39;4.00;;;1.77;;
31906;SDS011;18455;50.858;13.662;2023-03-26T07:47:32;3.97;;;1.80;;
31906;SDS011;18455;50.858;13.662;2023-03-26T07:52:45;5.20;;;1.80;;
31906;SDS011;18455;50.858;13.662;2023-03-26T07:58:17;5.30;;;1.87;;
31906;SDS011;18455;50.858;13.662;2023-03-26T08:09:54;6.23;;;2.63;;
31906;SDS011;18455;50.858;13.662;2023-03-26T08:20:46;8.43;;;2.60;;
31906;SDS011;18455;50.858;13.662;2023-03-26T08:30:58;8.27;;;2.30;;
31906;SDS011;18455;50.858;13.662;2023-03-26T08:36:01;9.63;;;2.60;;
31906;SDS011;18455;50.858;13.662;2023-03-26T08:57:08;4.07;;;2.13;;
31906;SDS011;18455;50.858;13.662;2023-03-26T09:28:57;15.40;;;2.17;;
31906;SDS011;18455;50.858;13.662;2023-03-26T09:39:38;8.10;;;1.90;;
31906;SDS011;18455;50.858;13.662;2023-03-26T09:44:54;4.67;;;2.00;;
31906;SDS011;18455;50.858;13.662;2023-03-26T09:55:49;12.53;;;2.37;;
31906;SDS011;18455;50.858;13.662;2023-03-26T10:01:03;12.17;;;4.33;;
31906;SDS011;18455;50.858;13.662;2023-03-26T10:06:30;6.30;;;1.93;;
31906;SDS011;18455;50.858;13.662;2023-03-26T10:34:03;7.70;;;1.80;;
31906;SDS011;18455;50.858;13.662;2023-03-26T10:39:33;5.87;;;1.80;;
31906;SDS011;18455;50.858;13.662;2023-03-26T10:44:48;5.87;;;2.03;;
31906;SDS011;18455;50.858;13.662;2023-03-26T10:50:15;2.87;;;2.17;;
31906;SDS011;18455;50.858;13.662;2023-03-26T10:55:26;2.17;;;1.40;;
31906;SDS011;18455;50.858;13.662;2023-03-26T11:00:32;3.30;;;1.20;;
31906;SDS011;18455;50.858;13.662;2023-03-26T11:11:14;3.17;;;1.60;;
31906;SDS011;18455;50.858;13.662;2023-03-26T11:27:17;6.95;;;1.50;;
31906;SDS011;18455;50.858;13.662;2023-03-26T11:32:24;4.03;;;1.60;;
31906;SDS011;18455;50.858;13.662;2023-03-26T11:37:31;3.63;;;1.30;;
31906;SDS011;18455;50.858;13.662;2023-03-26T11:42:34;5.18;;;1.33;;
31906;SDS011;18455;50.858;13.662;2023-03-26T11:47:36;3.60;;;1.23;;
31906;SDS011;18455;50.858;13.662;2023-03-26T11:52:39;5.18;;;1.45;;
31906;SDS011;18455;50.858;13.662;2023-03-26T11:57:41;2.75;;;1.30;;
31906;SDS011;18455;50.858;13.662;2023-03-26T12:02:47;3.60;;;1.20;;
31906;SDS011;18455;50.858;13.662;2023-03-26T12:12:57;4.85;;;1.30;;
31906;SDS011;18455;50.858;13.662;2023-03-26T12:18:16;2.58;;;1.10;;
31906;SDS011;18455;50.858;13.662;2023-03-26T12:24:02;3.27;;;1.30;;
31906;SDS011;18455;50.858;13.662;2023-03-26T12:28:49;9.17;;;1.87;;
31906;SDS011;18455;50.858;13.662;2023-03-26T12:34:35;8.47;;;2.63;;
31906;SDS011;18455;50.858;13.662;2023-03-26T12:39:25;6.60;;;2.60;;
31906;SDS011;18455;50.858;13.662;2023-03-26T12:44:29;3.20;;;2.03;;
31906;SDS011;18455;50.858;13.662;2023-03-26T12:49:33;2.63;;;1.33;;
31906;SDS011;18455;50.858;13.662;2023-03-26T13:10:34;5.75;;;1.55;;
31906;SDS011;18455;50.858;13.662;2023-03-26T13:15:43;2.80;;;1.10;;
31906;SDS011;18455;50.858;13.662;2023-03-26T13:21:06;2.55;;;1.10;;
31906;SDS011;18455;50.858;13.662;2023-03-26T13:26:15;6.90;;;1.70;;
31906;SDS011;18455;50.858;13.662;2023-03-26T13:31:32;7.68;;;1.60;;
31906;SDS011;18455;50.858;13.662;2023-03-26T13:42:03;4.37;;;2.10;;
31906;SDS011;18455;50.858;13.662;2023-03-26T13:47:18;2.03;;;1.20;;
31906;SDS011;18455;50.858;13.662;2023-03-26T13:57:33;3.33;;;1.50;;
31906;SDS011;18455;50.858;13.662;2023-03-26T14:02:37;2.07;;;1.20;;
31906;SDS011;18455;50.858;13.662;2023-03-26T14:07:41;5.57;;;1.47;;
31906;SDS011;18455;50.858;13.662;2023-03-26T14:12:51;5.77;;;1.80;;
31906;SDS011;18455;50.858;13.662;2023-03-26T14:23:47;5.93;;;1.77;;
31906;SDS011;18455;50.858;13.662;2023-03-26T14:34:28;6.37;;;2.93;;
31906;SDS011;18455;50.858;13.662;2023-03-26T15:01:02;8.60;;;3.87;;
31906;SDS011;18455;50.858;13.662;2023-03-26T15:22:52;2.43;;;1.27;;
31906;SDS011;18455;50.858;13.662;2023-03-26T16:01:36;4.47;;;1.90;;
31906;SDS011;18455;50.858;13.662;2023-03-26T16:07:10;4.57;;;2.20;;
31906;SDS011;18455;50.858;13.662;2023-03-26T16:12:29;5.33;;;1.60;;
31906;SDS011;18455;50.858;13.662;2023-03-26T16:18:03;6.97;;;2.70;;
31906;SDS011;18455;50.858;13.662;2023-03-26T16:23:26;2.67;;;1.63;;
31906;SDS011;18455;50.858;13.662;2023-03-26T16:44:11;8.17;;;4.10;;
31906;SDS011;18455;50.858;13.662;2023-03-26T16:55:02;4.20;;;2.73;;
31906;SDS011;18455;50.858;13.662;2023-03-26T17:21:16;4.17;;;2.10;;
31906;SDS011;18455;50.858;13.662;2023-03-26T17:32:15;3.03;;;2.00;;
31906;SDS011;18455;50.858;13.662;2023-03-26T17:42:32;7.47;;;2.03;;
31906;SDS011;18455;50.858;13.662;2023-03-26T17:47:39;5.17;;;2.70;;
31906;SDS011;18455;50.858;13.662;2023-03-26T17:52:44;7.87;;;4.20;;
31906;SDS011;18455;50.858;13.662;2023-03-26T17:57:53;2.50;;;2.30;;
31906;SDS011;18455;50.858;13.662;2023-03-26T18:03:05;6.83;;;3.60;;
31906;SDS011;18455;50.858;13.662;2023-03-26T18:08:31;5.17;;;2.70;;
31906;SDS011;18455;50.858;13.662;2023-03-26T18:13:45;8.80;;;4.00;;
31906;SDS011;18455;50.858;13.662;2023-03-26T18:18:48;5.53;;;2.67;;
31906;SDS011;18455;50.858;13.662;2023-03-26T18:23:51;6.20;;;2.30;;
31906;SDS011;18455;50.858;13.662;2023-03-26T18:28:52;4.33;;;3.00;;
31906;SDS011;18455;50.858;13.662;2023-03-26T18:33:55;6.47;;;2.37;;
31906;SDS011;18455;50.858;13.662;2023-03-26T18:38:58;5.97;;;2.90;;
31906;SDS011;18455;50.858;13.662;2023-03-26T18:43:59;4.27;;;2.07;;
31906;SDS011;18455;50.858;13.662;2023-03-26T18:49:01;3.03;;;1.80;;
31906;SDS011;18455;50.858;13.662;2023-03-26T18:54:02;2.80;;;1.70;;
31906;SDS011;18455;50.858;13.662;2023-03-26T18:59:04;2.53;;;1.80;;
31906;SDS011;18455;50.858;13.662;2023-03-26T19:04:27;2.37;;;1.70;;
31906;SDS011;18455;50.858;13.662;2023-03-26T19:09:32;3.17;;;1.70;;
31906;SDS011;18455;50.858;13.662;2023-03-26T19:14:32;2.70;;;1.63;;
31906;SDS011;18455;50.858;13.662;2023-03-26T19:19:35;2.53;;;1.83;;
31906;SDS011;18455;50.858;13.662;2023-03-26T19:24:36;4.47;;;2.40;;
31906;SDS011;18455;50.858;13.662;2023-03-26T19:29:39;3.50;;;2.13;;
31906;SDS011;18455;50.858;13.662;2023-03-26T19:34:41;4.83;;;1.80;;
31906;SDS011;18455;50.858;13.662;2023-03-26T19:39:44;2.50;;;2.30;;
31906;SDS011;18455;50.858;13.662;2023-03-26T19:44:46;1.60;;;1.50;;
31906;SDS011;18455;50.858;13.662;2023-03-26T19:49:48;2.40;;;1.70;;
31906;SDS011;18455;50.858;13.662;2023-03-26T19:54:54;3.03;;;1.70;;
31906;SDS011;18455;50.858;13.662;2023-03-26T20:00:05;2.90;;;2.20;;
31906;SDS011;18455;50.858;13.662;2023-03-26T20:05:19;3.57;;;2.37;;
31906;SDS011;18455;50.858;13.662;2023-03-26T20:10:22;5.20;;;2.20;;
31906;SDS011;18455;50.858;13.662;2023-03-26T20:15:23;3.27;;;1.80;;
31906;SDS011;18455;50.858;13.662;2023-03-26T20:20:25;6.30;;;2.87;;
31906;SDS011;18455;50.858;13.662;2023-03-26T20:25:27;4.47;;;2.40;;
31906;SDS011;18455;50.858;13.662;2023-03-26T20:30:29;1.70;;;1.60;;
31906;SDS011;18455;50.858;13.662;2023-03-26T20:35:30;2.17;;;1.80;;
31906;SDS011;18455;50.858;13.662;2023-03-26T20:40:31;2.40;;;1.80;;
31906;SDS011;18455;50.858;13.662;2023-03-26T20:45:31;4.63;;;2.27;;
31906;SDS011;18455;50.858;13.662;2023-03-26T20:50:32;6.33;;;3.37;;
31906;SDS011;18455;50.858;13.662;2023-03-26T20:55:32;5.90;;;3.90;;
31906;SDS011;18455;50.858;13.662;2023-03-26T21:00:34;7.03;;;4.70;;
31906;SDS011;18455;50.858;13.662;2023-03-26T21:05:39;9.43;;;5.27;;
31906;SDS011;18455;50.858;13.662;2023-03-26T21:11:04;9.30;;;5.60;;
31906;SDS011;18455;50.858;13.662;2023-03-26T21:16:12;9.63;;;5.10;;
31906;SDS011;18455;50.858;13.662;2023-03-26T21:21:21;11.17;;;5.77;;
31906;SDS011;18455;50.858;13.662;2023-03-26T21:26:49;7.30;;;5.27;;
31906;SDS011;18455;50.858;13.662;2023-03-26T21:31:53;6.27;;;4.07;;
31906;SDS011;18455;50.858;13.662;2023-03-26T21:36:54;4.10;;;3.03;;
31906;SDS011;18455;50.858;13.662;2023-03-26T21:41:54;8.63;;;5.37;;
31906;SDS011;18455;50.858;13.662;2023-03-26T21:46:55;6.97;;;5.30;;
31906;SDS011;18455;50.858;13.662;2023-03-26T21:51:56;10.00;;;6.47;;
31906;SDS011;18455;50.858;13.662;2023-03-26T22:02:30;13.00;;;7.23;;
31906;SDS011;18455;50.858;13.662;2023-03-26T22:07:55;13.20;;;7.57;;
31906;SDS011;18455;50.858;13.662;2023-03-26T22:12:56;11.60;;;8.00;;
31906;SDS011;18455;50.858;13.662;2023-03-26T22:18:00;16.13;;;10.73;;
31906;SDS011;18455;50.858;13.662;2023-03-26T22:23:01;14.53;;;9.93;;
31906;SDS011;18455;50.858;13.662;2023-03-26T22:28:02;18.27;;;11.07;;
31906;SDS011;18455;50.858;13.662;2023-03-26T22:33:03;14.27;;;8.93;;
31906;SDS011;18455;50.858;13.662;2023-03-26T22:38:04;17.10;;;9.87;;
31906;SDS011;18455;50.858;13.662;2023-03-26T22:43:04;17.07;;;8.77;;
31906;SDS011;18455;50.858;13.662;2023-03-26T22:48:05;15.50;;;10.13;;
31906;SDS011;18455;50.858;13.662;2023-03-26T22:53:05;15.93;;;9.63;;
31906;SDS011;18455;50.858;13.662;2023-03-26T22:58:06;13.63;;;8.53;;
31906;SDS011;18455;50.858;13.662;2023-03-26T23:03:07;12.43;;;7.83;;
31906;SDS011;18455;50.858;13.662;2023-03-26T23:08:07;12.53;;;7.37;;
31906;SDS011;18455;50.858;13.662;2023-03-26T23:13:07;13.77;;;8.77;;
31906;SDS011;18455;50.858;13.662;2023-03-26T23:18:08;13.07;;;7.40;;
31906;SDS011;18455;50.858;13.662;2023-03-26T23:23:08;12.40;;;7.10;;
31906;SDS011;18455;50.858;13.662;2023-03-26T23:28:08;10.33;;;6.87;;
31906;SDS011;18455;50.858;13.662;2023-03-26T23:33:09;14.10;;;7.30;;
31906;SDS011;18455;50.858;13.662;2023-03-26T23:38:10;13.30;;;8.10;;
31906;SDS011;18455;50.858;13.662;2023-03-26T23:43:11;11.90;;;7.70;;
31906;SDS011;18455;50.858;13.662;2023-03-26T23:48:12;6.97;;;5.50;;
31906;SDS011;18455;50.858;13.662;2023-03-26T23:53:16;6.37;;;5.27;;
31906;SDS011;18455;50.858;13.662;2023-03-26T23:58:18;6.87;;;5.17;;
